EUGMAHLON SWEET FLD
METARs for airports near EUG, sorted by distance:
N 0 nm 373' KEUG 222254Z 01010KT 10SM OVC011 06/03 A3040
N 22 nm 249' KCVO 222256Z 04006KT 10SM SCT012 07/03 A3042
NW 45 nm 160' KONP 222315Z 36003KT 10SM CLR 12/04 A3035
N 47 nm 213' KSLE 222256Z 34006KT 10SM CLR 09/04 A3040
S 53 nm 533' KRBG 222253Z 00000KT 10SM CLR 10/03 A3034
SW 61 nm 17' KOTH 222256Z 09003KT 10SM CLR 18/05 A3027
N 64 nm 162' KMMV 222253Z 36006KT 10SM CLR 09/03 A3041
N 70 nm 199' KUAO 222253Z 36007KT 10SM CLR 10/03 A3042
N 81 nm 39' KTMK 222250Z 00000KT 10SM CLR 13/04 A3037
N 85 nm 207' KHIO 222253Z 30003KT 10SM CLR 08/04 A3042
E 86 nm 3459' KBDN 222315Z 36006KT 10SM CLR 13/M11 A3044
E 89 nm 3081' KRDM 222256Z 31003KT 10SM CLR 12/M04 A3042
N 91 nm 30' KPDX 222253Z 30006KT 10SM FEW100 FEW250 09/03 A3044
N 92 nm 38' KTTD 222153Z 27008KT 10SM CLR 08/03 A3044
N 92 nm 28' KVUO 222253Z 30005KT 10SM CLR 09/03 A3044
N 99 nm 58' KSPB 222253Z 00000KT 10SM CLR 09/03 A3043
TAFs for airports near EUG, sorted by distance:
N 0 nm 373' KEUG TAF
  AMD KEUG 222107Z 2221/2318 01008KT P6SM OVC012
  FM222300 02008KT P6SM SCT015
  FM230800 35004KT 3SM BR SCT004 BKN010
  FM231200 00000KT 1/2SM FG OVC002
NW 45 nm 160' KONP TAF KONP 221737Z 2218/2318 08014G23KT P6SM SKC
  FM230800 11010KT P6SM SKC
N 47 nm 213' KSLE TAF
  AMD KSLE 222101Z 2221/2318 36006KT P6SM BKN014
  FM222200 36007KT P6SM FEW015
  FM231100 35004KT 6SM BR MIFG BKN015
  FM231400 00000KT 1SM BR OVC002
S 53 nm 533' KRBG TAF
  AMD KRBG 222101Z 2221/2318 VRB03KT P6SM SKC
  FM231100 VRB03KT P6SM OVC012
SW 61 nm 17' KOTH KOTH 221724Z 2218/2318 03006KT P6SM SKC
  FM230400 09006KT P6SM SKC
N 70 nm 199' KUAO KUAO 221743Z 2218/2318 03004KT P6SM BKN012
  FM221900 03004KT P6SM SCT025
  FM222000 02004KT P6SM SKC
  FM230900 36002KT 5SM BR MIFG FEW007 BKN015
  FM231400 00000KT 1/2SM FG OVC002
N 85 nm 207' KHIO KHIO 221941Z 2220/2318 35003KT P6SM BKN010
  FM222100 02004KT P6SM FEW030
  FM230700 35002KT 1SM BR SCT002 BKN009
  FM231200 00000KT 1/2SM FG OVC002
E 86 nm 3459' KBDN TAF KBDN 221738Z 2218/2318 VRB04KT P6SM SKC
E 89 nm 3081' KRDM TAF KRDM 221738Z 2218/2318 VRB04KT P6SM SKC
N 91 nm 30' KPDX TAF
  AMD KPDX 222053Z 2221/2318 35004KT P6SM FEW015
  FM230000 10008KT P6SM SKC
  FM230900 34003KT P6SM SKC
  FM231400 00000KT 6SM BR FEW003
N 92 nm 38' KTTD KTTD 222057Z 2221/2318 27007KT P6SM SKC
  FM222300 08006KT P6SM SKC
  FM230300 10012G20KT P6SM SKC
  FM230900 10022G31KT P6SM SKC
  FM231600 10010KT 6SM BR FEW003
  AMD NOT SKED

Shortcut to this page: http://wxbay.com.

Data may contain errors.